This is the latest recevied weather packets stored in our database for station/object KD2CRT. If no packets are shown the sender has not sent any weather packets the latest 10 day(s).
| Time | Temp. | Humidity | Pressure | Rain* | Wind** | Luminosity | Snow |
|---|---|---|---|---|---|---|---|
| 1777590008 | 16.67° C | 55% | 993.3 hPa | 0 mm | - | - | - |
| 1777589995 | 16.67° C | 55% | 993.4 hPa | 0 mm | - | - | - |
| 1777586450 | 17.22° C | 55% | 993.2 hPa | 0 mm | - | - | - |
| 1777582808 | 16.67° C | 62% | 992.7 hPa | 0 mm | - | - | - |
| 1777582803 | 16.67° C | 62% | 992.7 hPa | 0 mm | - | - | - |
| 1777579227 | 16.11° C | 68% | 992.2 hPa | 0 mm | - | - | - |
| 1777572034 | 15° C | 78% | 992.8 hPa | 0 mm | - | - | - |
| 1777564841 | 13.33° C | 85% | 993.1 hPa | 0 mm | - | - | - |
| 1777557636 | 11.11° C | 93% | 993.2 hPa | 0 mm | - | - | - |
| 1777550442 | 9.44° C | 94% | 993.4 hPa | 0 mm | - | - | - |
| 1777543245 | 8.89° C | 94% | 993 hPa | 0 mm | - | - | - |
| 1777539611 | 8.33° C | 94% | 992.9 hPa | 0 mm | - | - | - |
| 1777539602 | 8.33° C | 94% | 993 hPa | 0 mm | - | - | - |
| 1777536050 | 8.89° C | 94% | 993.2 hPa | 0 mm | - | - | - |
| 1777532404 | 8.89° C | 93% | 993.7 hPa | 0.25 mm | - | - | - |
| 1777528851 | 9.44° C | 93% | 994.4 hPa | 2.79 mm | - | - | - |
| 1777525213 | 9.44° C | 93% | 994.5 hPa | 1.02 mm | - | - | - |
| 1777525211 | 9.44° C | 93% | 994.5 hPa | 1.02 mm | - | - | - |
| 1777518046 | 10° C | 91% | 995.4 hPa | 2.79 mm | - | - | - |
| 1777514414 | 10.56° C | 89% | 996.2 hPa | 1.27 mm | - | - | - |
| 1777514400 | 10.56° C | 89% | 996.2 hPa | 1.27 mm | - | - | - |
| 1777510854 | 11.67° C | 84% | 996.1 hPa | 0.76 mm | - | - | - |
| 1777507210 | 12.78° C | 76% | 995.6 hPa | 0.25 mm | - | - | - |
| 1777500020 | 15° C | 65% | 995.7 hPa | 0 mm | - | - | - |
| 1777492822 | 19.44° C | 54% | 996.5 hPa | 0 mm | - | - | - |
* Rain latest hour (hover to see other rain measurements)
** Current wind speed in m/s (hover to see current wind gust speed)